createdAt,value
2019-01-05T00:02:18.859Z,6.70
2019-01-05T00:05:06.776Z,7.57
2019-01-05T00:07:54.193Z,7.20
2019-01-05T00:10:52.679Z,7.20
2019-01-05T00:13:40.539Z,6.43
2019-01-05T00:16:34.160Z,6.70
2019-01-05T00:19:27.444Z,6.77
2019-01-05T00:22:16.202Z,7.23
2019-01-05T00:25:04.438Z,6.80
2019-01-05T00:28:01.630Z,7.60
2019-01-05T00:31:06.990Z,6.63
2019-01-05T00:34:08.137Z,8.67
2019-01-05T00:37:03.437Z,8.23
2019-01-05T00:39:48.584Z,7.50
2019-01-05T00:42:57.559Z,7.10
2019-01-05T00:45:49.002Z,5.93
2019-01-05T00:48:49.219Z,7.43
2019-01-05T00:51:45.342Z,7.47
2019-01-05T00:54:50.927Z,6.50
2019-01-05T00:57:50.382Z,5.83
2019-01-05T01:00:56.240Z,6.80
2019-01-05T01:03:54.061Z,7.80
2019-01-05T01:06:36.111Z,7.83
2019-01-05T01:09:30.605Z,6.40
2019-01-05T01:12:18.504Z,6.80
2019-01-05T01:15:07.692Z,7.10
2019-01-05T01:18:12.148Z,7.90
2019-01-05T01:21:07.804Z,6.93
2019-01-05T01:24:10.329Z,6.67
2019-01-05T01:26:58.617Z,8.10
2019-01-05T01:29:48.573Z,7.80
2019-01-05T01:32:47.254Z,7.40
2019-01-05T01:35:31.226Z,8.87
2019-01-05T01:38:59.516Z,8.30
2019-01-05T01:41:57.752Z,9.03
2019-01-05T01:45:05.075Z,9.00
2019-01-05T01:48:15.067Z,9.53
2019-01-05T01:51:13.508Z,10.53
2019-01-05T01:54:03.427Z,9.53
2019-01-05T01:56:56.571Z,11.47
2019-01-05T02:00:10.960Z,9.53
2019-01-05T02:02:57.227Z,10.20
2019-01-05T02:05:46.725Z,11.50
2019-01-05T02:08:54.316Z,10.27
2019-01-05T02:11:44.733Z,10.30
2019-01-05T02:14:36.941Z,10.70
2019-01-05T02:18:16.125Z,9.37
2019-01-05T02:21:34.218Z,10.57
2019-01-05T02:25:14.017Z,11.30
2019-01-05T02:29:00.557Z,11.40
2019-01-05T02:33:05.733Z,9.57
2019-01-05T02:36:40.560Z,8.67
2019-01-05T02:40:38.612Z,8.03
2019-01-05T02:44:23.482Z,8.20
2019-01-05T02:48:35.069Z,8.70
2019-01-05T02:52:32.301Z,9.70
2019-01-05T02:56:33.721Z,10.90
2019-01-05T03:00:54.383Z,11.10
2019-01-05T03:04:39.691Z,11.67
2019-01-05T03:08:52.262Z,13.03
2019-01-05T03:12:41.769Z,9.80
2019-01-05T03:16:20.965Z,13.67
2019-01-05T03:20:27.707Z,11.57
2019-01-05T03:24:04.827Z,11.90
2019-01-05T03:28:10.804Z,12.60
2019-01-05T03:31:41.104Z,12.50
2019-01-05T03:35:31.063Z,13.37
2019-01-05T03:39:23.824Z,10.60
2019-01-05T03:43:13.397Z,11.70
2019-01-05T03:47:01.184Z,10.60
2019-01-05T03:50:43.659Z,11.70
2019-01-05T03:54:30.602Z,11.27
2019-01-05T03:58:25.015Z,12.03
2019-01-05T04:02:00.779Z,12.37
2019-01-05T04:06:02.054Z,11.53
2019-01-05T04:10:04.476Z,11.30
2019-01-05T04:14:01.617Z,11.43
2019-01-05T04:18:03.339Z,11.43
2019-01-05T04:22:05.660Z,12.47
2019-01-05T04:25:59.603Z,11.20
2019-01-05T04:29:49.412Z,12.97
2019-01-05T04:33:50.923Z,11.03
2019-01-05T04:37:34.561Z,11.40
2019-01-05T04:41:00.730Z,12.87
2019-01-05T04:44:45.760Z,13.80
2019-01-05T04:48:36.354Z,12.07
2019-01-05T04:52:31.240Z,11.67
2019-01-05T04:56:38.231Z,12.70
2019-01-05T05:00:22.625Z,11.83
2019-01-05T05:04:18.194Z,16.73
2019-01-05T05:08:23.806Z,11.30
2019-01-05T05:12:11.605Z,8.90
2019-01-05T05:16:04.001Z,11.20
2019-01-05T05:19:55.352Z,10.83
2019-01-05T05:23:41.738Z,10.60
2019-01-05T05:27:24.800Z,11.10
2019-01-05T05:31:39.940Z,2.43
2019-01-05T05:35:15.955Z,2.00
2019-01-05T05:39:19.016Z,2.00
2019-01-05T05:43:06.409Z,2.03
2019-01-05T05:46:59.357Z,2.50
2019-01-05T05:51:03.423Z,2.10
2019-01-05T05:55:03.563Z,2.53
2019-01-05T05:59:20.943Z,2.17
2019-01-05T06:02:54.937Z,2.30
2019-01-05T06:06:47.417Z,1.83
2019-01-05T06:10:44.423Z,1.63
2019-01-05T06:14:35.196Z,1.60
2019-01-05T06:18:18.337Z,2.20
2019-01-05T06:22:00.801Z,1.90
2019-01-05T06:25:55.674Z,1.87
2019-01-05T06:30:01.024Z,2.07
2019-01-05T06:33:52.502Z,1.40
2019-01-05T06:37:36.779Z,2.30
2019-01-05T06:41:12.340Z,1.90
2019-01-05T06:45:14.550Z,2.40
2019-01-05T06:49:29.661Z,2.07
2019-01-05T06:53:28.446Z,2.20
2019-01-05T06:57:32.684Z,2.30
2019-01-05T07:01:08.931Z,2.10
2019-01-05T07:04:45.654Z,1.90
2019-01-05T07:08:47.112Z,2.03
2019-01-05T07:13:01.141Z,2.20
2019-01-05T07:16:34.126Z,2.10
2019-01-05T07:20:29.771Z,2.50
2019-01-05T07:24:27.180Z,1.70
2019-01-05T07:28:29.069Z,2.37
2019-01-05T07:32:36.736Z,2.27
2019-01-05T07:36:29.318Z,1.97
2019-01-05T07:40:32.179Z,2.17
2019-01-05T07:44:31.240Z,2.77
2019-01-05T07:48:33.694Z,1.97
2019-01-05T07:52:22.590Z,2.80
2019-01-05T07:56:09.007Z,3.00
2019-01-05T07:59:54.156Z,2.43
2019-01-05T08:03:46.633Z,2.97
2019-01-05T08:07:31.773Z,2.70
2019-01-05T08:11:14.201Z,3.40
2019-01-05T08:15:20.274Z,2.53
2019-01-05T08:19:23.886Z,3.20
2019-01-05T08:22:56.293Z,2.70
2019-01-05T08:26:55.418Z,2.43
2019-01-05T08:30:51.057Z,2.53
2019-01-05T08:34:29.766Z,2.50
2019-01-05T08:38:30.526Z,2.60
2019-01-05T08:42:15.633Z,2.30
2019-01-05T08:46:03.597Z,2.27
2019-01-05T08:49:57.823Z,2.77
2019-01-05T08:53:49.111Z,2.30
2019-01-05T08:57:50.059Z,2.80
2019-01-05T09:01:30.443Z,2.83
2019-01-05T09:04:58.562Z,2.20
2019-01-05T09:08:56.666Z,1.90
2019-01-05T09:12:48.852Z,2.00
2019-01-05T09:16:27.980Z,1.67
2019-01-05T09:20:21.040Z,1.60
2019-01-05T09:24:14.774Z,2.00
2019-01-05T09:28:02.927Z,2.03
2019-01-05T09:32:16.969Z,2.10
2019-01-05T09:35:59.657Z,2.10
2019-01-05T09:39:43.932Z,1.73
2019-01-05T09:43:26.307Z,1.43
2019-01-05T09:47:18.932Z,1.87
2019-01-05T09:51:04.581Z,1.67
2019-01-05T09:55:22.543Z,2.00
2019-01-05T09:59:20.643Z,1.87
2019-01-05T10:03:15.967Z,2.60
2019-01-05T10:07:28.695Z,1.43
2019-01-05T10:11:10.813Z,2.23
2019-01-05T10:15:01.455Z,2.07
2019-01-05T10:18:42.450Z,1.40
2019-01-05T10:22:29.554Z,1.83
2019-01-05T10:26:46.079Z,1.80
2019-01-05T10:30:46.750Z,1.67
2019-01-05T10:34:46.092Z,1.53
2019-01-05T10:38:36.528Z,1.90
2019-01-05T10:42:37.050Z,1.90
2019-01-05T10:46:41.344Z,1.70
2019-01-05T10:50:37.177Z,2.07
2019-01-05T10:54:32.713Z,1.87
2019-01-05T10:58:07.289Z,1.33
2019-01-05T11:02:07.037Z,1.43
2019-01-05T11:06:11.421Z,1.43
2019-01-05T11:09:45.299Z,1.50
2019-01-05T11:13:42.355Z,1.20
2019-01-05T11:17:35.871Z,1.70
2019-01-05T11:21:25.764Z,1.53
2019-01-05T11:25:22.900Z,1.30
2019-01-05T11:29:17.971Z,1.23
2019-01-05T11:33:15.302Z,1.60
2019-01-05T11:37:12.768Z,1.40
2019-01-05T11:41:25.685Z,1.37
2019-01-05T11:45:21.262Z,1.60
2019-01-05T11:49:23.611Z,1.10
2019-01-05T11:52:59.746Z,1.30
2019-01-05T11:57:11.077Z,1.13
2019-01-05T12:00:56.252Z,1.30
2019-01-05T12:04:38.295Z,1.10
2019-01-05T12:08:51.012Z,1.10
2019-01-05T12:12:48.145Z,1.27
2019-01-05T12:16:48.437Z,1.20
2019-01-05T12:20:25.837Z,1.00
2019-01-05T12:24:35.088Z,1.30
2019-01-05T12:28:24.574Z,1.03
2019-01-05T12:32:32.404Z,1.40
2019-01-05T12:36:30.910Z,1.10
2019-01-05T12:39:56.257Z,1.07
2019-01-05T12:43:36.415Z,1.10
2019-01-05T12:47:38.610Z,1.00
2019-01-05T12:51:26.061Z,1.40
2019-01-05T12:55:14.601Z,1.10
2019-01-05T12:59:04.581Z,1.00
2019-01-05T13:02:41.484Z,1.17
2019-01-05T13:06:43.682Z,1.00
2019-01-05T13:10:42.494Z,1.40
2019-01-05T13:14:41.704Z,1.10
2019-01-05T13:18:44.559Z,1.10
2019-01-05T13:22:30.326Z,1.00
2019-01-05T13:26:30.482Z,1.10
2019-01-05T13:30:23.179Z,1.00
2019-01-05T13:34:06.199Z,0.90
2019-01-05T13:37:43.647Z,1.20
2019-01-05T13:42:01.284Z,0.97
2019-01-05T13:45:55.382Z,1.23
2019-01-05T13:49:51.638Z,1.17
2019-01-05T13:53:50.761Z,0.93
2019-01-05T13:56:54.953Z,1.00
2019-01-05T14:00:02.521Z,1.10
2019-01-05T14:02:57.896Z,1.20
2019-01-05T14:05:46.020Z,1.30
2019-01-05T14:08:34.339Z,1.40
2019-01-05T14:11:22.656Z,1.40
2019-01-05T14:14:10.895Z,1.37
2019-01-05T14:17:00.331Z,1.30
2019-01-05T14:19:48.772Z,1.20
2019-01-05T14:22:47.201Z,1.00
2019-01-05T14:25:48.658Z,1.00
2019-01-05T14:28:47.301Z,1.10
2019-01-05T14:32:06.449Z,1.50
2019-01-05T14:35:05.244Z,1.10
2019-01-05T14:37:57.867Z,1.10
2019-01-05T14:40:45.898Z,1.20
2019-01-05T14:43:41.438Z,0.83
2019-01-05T14:46:42.764Z,0.80
2019-01-05T14:49:41.111Z,1.40
2019-01-05T14:52:29.148Z,1.13
2019-01-05T14:55:33.894Z,1.30
2019-01-05T14:58:35.429Z,1.40
2019-01-05T15:01:25.951Z,1.30
2019-01-05T15:04:24.571Z,1.10
2019-01-05T15:07:32.405Z,1.10
2019-01-05T15:10:19.144Z,1.00
2019-01-05T15:13:07.111Z,1.07
2019-01-05T15:16:08.788Z,1.50
2019-01-05T15:18:54.181Z,1.13
2019-01-05T15:21:42.882Z,1.10
2019-01-05T15:24:42.732Z,0.87
2019-01-05T15:27:30.951Z,1.00
2019-01-05T15:30:20.761Z,1.20
2019-01-05T15:33:23.393Z,1.00
2019-01-05T15:36:24.797Z,1.10
2019-01-05T15:39:12.957Z,1.00
2019-01-05T15:42:01.367Z,1.00
2019-01-05T15:44:53.678Z,1.10
2019-01-05T15:47:43.110Z,0.87
2019-01-05T15:50:38.587Z,0.90
2019-01-05T15:53:43.075Z,0.90
2019-01-05T15:56:38.652Z,0.80
2019-01-05T15:59:26.833Z,0.93
2019-01-05T16:02:25.143Z,1.23
2019-01-05T16:05:18.460Z,1.00
2019-01-05T16:08:21.367Z,1.17
2019-01-05T16:11:13.827Z,1.10
2019-01-05T16:14:06.121Z,1.77
2019-01-05T16:16:58.402Z,1.60
2019-01-05T16:19:41.257Z,1.23
2019-01-05T16:22:29.600Z,1.10
2019-01-05T16:25:19.073Z,1.30
2019-01-05T16:28:03.967Z,1.40
2019-01-05T16:31:11.474Z,1.53
2019-01-05T16:34:00.463Z,1.10
2019-01-05T16:36:48.329Z,0.90
2019-01-05T16:39:39.605Z,4.43
2019-01-05T16:42:32.586Z,1.67
2019-01-05T16:45:31.189Z,1.30
2019-01-05T16:48:19.423Z,0.90
2019-01-05T16:51:02.650Z,1.00
2019-01-05T16:53:53.532Z,1.23
2019-01-05T16:56:48.723Z,1.87
2019-01-05T16:59:36.855Z,1.50
2019-01-05T17:02:38.231Z,1.27
2019-01-05T17:05:42.614Z,1.43
2019-01-05T17:08:30.774Z,1.20
2019-01-05T17:11:31.918Z,1.30
2019-01-05T17:14:21.344Z,1.20
2019-01-05T17:17:10.965Z,1.07
2019-01-05T17:20:12.659Z,1.10
2019-01-05T17:23:00.747Z,1.00
2019-01-05T17:25:53.207Z,1.03
2019-01-05T17:28:39.119Z,1.10
2019-01-05T17:31:33.795Z,1.23
2019-01-05T17:34:25.457Z,1.27
2019-01-05T17:37:17.746Z,0.90
2019-01-05T17:40:12.984Z,1.10
2019-01-05T17:43:01.089Z,1.23
2019-01-05T17:45:50.502Z,1.23
2019-01-05T17:48:51.898Z,1.40
2019-01-05T17:51:47.127Z,1.67
2019-01-05T17:54:31.037Z,2.00
2019-01-05T17:57:19.148Z,1.30
2019-01-05T18:00:20.814Z,29.23
2019-01-05T18:03:16.332Z,1.27
2019-01-05T18:06:03.526Z,1.97
2019-01-05T18:08:51.656Z,1.17
2019-01-05T18:11:47.208Z,1.40
2019-01-05T18:14:35.094Z,1.50
2019-01-05T18:17:24.495Z,1.50
2019-01-05T18:20:12.666Z,1.10
2019-01-05T18:23:00.858Z,1.30
2019-01-05T18:25:49.024Z,1.60
2019-01-05T18:28:56.447Z,1.17
2019-01-05T18:31:51.757Z,1.23
2019-01-05T18:34:36.491Z,1.30
2019-01-05T18:37:21.713Z,1.40
2019-01-05T18:40:17.055Z,1.60
2019-01-05T18:43:08.427Z,1.37
2019-01-05T18:45:54.748Z,1.20
2019-01-05T18:48:50.276Z,1.40
2019-01-05T18:51:42.583Z,2.00
2019-01-05T18:54:30.567Z,1.17
2019-01-05T18:57:26.094Z,2.50
2019-01-05T19:00:33.667Z,3.00
2019-01-05T19:03:21.272Z,1.70
2019-01-05T19:06:16.011Z,1.50
2019-01-05T19:09:03.871Z,1.37
2019-01-05T19:11:53.008Z,4.37
2019-01-05T19:15:00.479Z,1.57
2019-01-05T19:17:50.686Z,1.60
2019-01-05T19:20:38.781Z,1.40
2019-01-05T19:23:34.671Z,1.83
2019-01-05T19:26:30.027Z,1.97
2019-01-05T19:29:11.935Z,1.40
2019-01-05T19:32:10.281Z,4.60
2019-01-05T19:35:08.719Z,2.60
2019-01-05T19:38:04.372Z,2.80
2019-01-05T19:41:02.837Z,1.20
2019-01-05T19:44:04.205Z,1.73
2019-01-05T19:46:52.172Z,1.20
2019-01-05T19:49:42.453Z,1.17
2019-01-05T19:52:30.386Z,1.37
2019-01-05T19:55:19.835Z,1.10
2019-01-05T19:58:21.384Z,1.20
2019-01-05T20:01:06.990Z,1.50
2019-01-05T20:04:11.693Z,1.23
2019-01-05T20:07:04.653Z,1.23
2019-01-05T20:10:05.943Z,1.30
2019-01-05T20:12:49.573Z,1.50
2019-01-05T20:15:37.414Z,1.53
2019-01-05T20:18:25.525Z,1.60
2019-01-05T20:21:21.147Z,9.70
2019-01-05T20:24:19.652Z,1.77
2019-01-05T20:27:08.664Z,1.30
2019-01-05T20:30:03.614Z,1.40
2019-01-05T20:32:54.220Z,1.40
2019-01-05T20:35:49.695Z,1.30
2019-01-05T20:38:54.081Z,2.03
2019-01-05T20:41:42.189Z,1.20
2019-01-05T20:44:46.894Z,1.50
2019-01-05T20:47:34.844Z,1.30
2019-01-05T20:50:32.612Z,1.50
2019-01-05T20:53:30.826Z,1.60
2019-01-05T20:56:18.928Z,1.63
2019-01-05T20:59:08.353Z,2.17
2019-01-05T21:01:56.506Z,1.60
2019-01-05T21:04:55.888Z,2.10
2019-01-05T21:07:39.661Z,2.20
2019-01-05T21:10:28.039Z,1.70
2019-01-05T21:13:21.500Z,1.70
2019-01-05T21:16:21.355Z,1.87
2019-01-05T21:19:13.846Z,1.67
2019-01-05T21:22:09.376Z,1.90
2019-01-05T21:25:07.953Z,1.27
2019-01-05T21:28:15.612Z,1.93
2019-01-05T21:31:04.933Z,1.63
2019-01-05T21:33:56.727Z,1.90
2019-01-05T21:36:58.394Z,1.63
2019-01-05T21:40:03.037Z,1.80
2019-01-05T21:43:01.284Z,1.80
2019-01-05T21:45:49.362Z,1.83
2019-01-05T21:48:41.825Z,1.90
2019-01-05T21:51:31.220Z,1.40
2019-01-05T21:54:23.508Z,1.90
2019-01-05T21:57:15.744Z,2.77
2019-01-05T22:00:03.654Z,1.97
2019-01-05T22:02:47.218Z,2.50
2019-01-05T22:05:35.104Z,3.47
2019-01-05T22:08:30.285Z,2.33
2019-01-05T22:11:23.099Z,2.30
2019-01-05T22:14:23.902Z,2.20
2019-01-05T22:17:13.293Z,2.27
2019-01-05T22:20:11.794Z,3.10
2019-01-05T22:23:05.912Z,2.80
2019-01-05T22:26:08.943Z,2.60
2019-01-05T22:28:56.788Z,2.77
2019-01-05T22:32:01.486Z,2.93
2019-01-05T22:34:58.253Z,2.40
2019-01-05T22:37:40.646Z,2.00
2019-01-05T22:40:42.698Z,3.33
2019-01-05T22:43:30.544Z,3.27
2019-01-05T22:46:19.969Z,2.30
2019-01-05T22:49:08.240Z,2.40
2019-01-05T22:52:11.545Z,2.57
2019-01-05T22:55:09.681Z,3.00
2019-01-05T22:57:57.955Z,2.80
2019-01-05T23:00:45.934Z,2.23
2019-01-05T23:03:46.222Z,2.03
2019-01-05T23:06:34.288Z,2.30
2019-01-05T23:09:30.439Z,2.40
2019-01-05T23:12:20.077Z,2.43
2019-01-05T23:15:15.463Z,1.70
2019-01-05T23:18:07.787Z,2.20
2019-01-05T23:20:56.102Z,1.73
2019-01-05T23:23:44.301Z,1.90
2019-01-05T23:26:32.427Z,2.07
2019-01-05T23:29:20.593Z,1.90
2019-01-05T23:32:10.943Z,1.50
2019-01-05T23:34:59.226Z,2.03
2019-01-05T23:37:47.268Z,2.00
2019-01-05T23:40:54.937Z,2.33
2019-01-05T23:43:42.851Z,2.30
2019-01-05T23:46:41.093Z,1.90
2019-01-05T23:49:48.801Z,1.90
2019-01-05T23:52:47.376Z,1.97
2019-01-05T23:55:36.811Z,1.80
2019-01-05T23:58:42.294Z,2.00
